sensor_id;sensor_type;location;lat;lon;timestamp;P1;durP1;ratioP1;P2;durP2;ratioP2
40459;SDS011;26164;51.138;16.952;2023-04-25T00:01:53;1.90;;;0.70;;
40459;SDS011;26164;51.138;16.952;2023-04-25T00:04:19;2.88;;;0.85;;
40459;SDS011;26164;51.138;16.952;2023-04-25T00:06:47;2.42;;;0.98;;
40459;SDS011;26164;51.138;16.952;2023-04-25T00:09:13;2.80;;;0.70;;
40459;SDS011;26164;51.138;16.952;2023-04-25T00:11:40;3.53;;;0.93;;
40459;SDS011;26164;51.138;16.952;2023-04-25T00:14:07;2.17;;;1.00;;
40459;SDS011;26164;51.138;16.952;2023-04-25T00:16:33;2.78;;;0.80;;
40459;SDS011;26164;51.138;16.952;2023-04-25T00:19:01;3.55;;;1.30;;
40459;SDS011;26164;51.138;16.952;2023-04-25T00:21:30;2.45;;;0.82;;
40459;SDS011;26164;51.138;16.952;2023-04-25T00:23:56;2.95;;;1.00;;
40459;SDS011;26164;51.138;16.952;2023-04-25T00:26:23;4.45;;;1.02;;
40459;SDS011;26164;51.138;16.952;2023-04-25T00:28:48;5.20;;;1.10;;
40459;SDS011;26164;51.138;16.952;2023-04-25T00:31:17;4.63;;;1.05;;
40459;SDS011;26164;51.138;16.952;2023-04-25T00:33:43;2.72;;;0.88;;
40459;SDS011;26164;51.138;16.952;2023-04-25T00:36:14;2.78;;;0.80;;
40459;SDS011;26164;51.138;16.952;2023-04-25T00:38:40;3.90;;;1.30;;
40459;SDS011;26164;51.138;16.952;2023-04-25T00:44:06;2.67;;;1.23;;
40459;SDS011;26164;51.138;16.952;2023-04-25T00:46:57;2.67;;;1.20;;
40459;SDS011;26164;51.138;16.952;2023-04-25T00:49:25;4.10;;;1.20;;
40459;SDS011;26164;51.138;16.952;2023-04-25T00:51:51;2.90;;;1.38;;
40459;SDS011;26164;51.138;16.952;2023-04-25T00:54:17;2.22;;;1.38;;
40459;SDS011;26164;51.138;16.952;2023-04-25T00:56:43;3.78;;;1.23;;
40459;SDS011;26164;51.138;16.952;2023-04-25T00:59:14;2.60;;;1.27;;
40459;SDS011;26164;51.138;16.952;2023-04-25T01:01:40;4.90;;;1.70;;
40459;SDS011;26164;51.138;16.952;2023-04-25T01:04:07;2.83;;;1.17;;
40459;SDS011;26164;51.138;16.952;2023-04-25T01:06:34;2.55;;;1.48;;
40459;SDS011;26164;51.138;16.952;2023-04-25T01:09:18;3.03;;;1.55;;
40459;SDS011;26164;51.138;16.952;2023-04-25T01:12:06;4.93;;;1.70;;
40459;SDS011;26164;51.138;16.952;2023-04-25T01:14:51;3.85;;;1.90;;
40459;SDS011;26164;51.138;16.952;2023-04-25T01:17:35;3.20;;;2.00;;
40459;SDS011;26164;51.138;16.952;2023-04-25T01:20:16;3.67;;;1.80;;
40459;SDS011;26164;51.138;16.952;2023-04-25T01:22:59;3.50;;;2.05;;
40459;SDS011;26164;51.138;16.952;2023-04-25T01:26:04;5.25;;;1.83;;
40459;SDS011;26164;51.138;16.952;2023-04-25T01:29:08;5.85;;;2.00;;
40459;SDS011;26164;51.138;16.952;2023-04-25T01:32:57;4.75;;;2.40;;
40459;SDS011;26164;51.138;16.952;2023-04-25T01:38:35;4.70;;;2.22;;
40459;SDS011;26164;51.138;16.952;2023-04-25T01:41:25;4.43;;;2.40;;
40459;SDS011;26164;51.138;16.952;2023-04-25T01:44:10;4.10;;;2.00;;
40459;SDS011;26164;51.138;16.952;2023-04-25T01:46:48;6.18;;;2.58;;
40459;SDS011;26164;51.138;16.952;2023-04-25T01:49:14;6.47;;;2.17;;
40459;SDS011;26164;51.138;16.952;2023-04-25T01:51:47;6.22;;;2.60;;
40459;SDS011;26164;51.138;16.952;2023-04-25T01:54:14;4.80;;;2.63;;
40459;SDS011;26164;51.138;16.952;2023-04-25T01:56:41;6.25;;;2.90;;
40459;SDS011;26164;51.138;16.952;2023-04-25T01:59:14;6.32;;;3.08;;
40459;SDS011;26164;51.138;16.952;2023-04-25T02:01:59;5.78;;;3.15;;
40459;SDS011;26164;51.138;16.952;2023-04-25T02:04:30;5.85;;;2.67;;
40459;SDS011;26164;51.138;16.952;2023-04-25T02:06:59;10.38;;;3.38;;
40459;SDS011;26164;51.138;16.952;2023-04-25T02:09:36;7.38;;;3.00;;
40459;SDS011;26164;51.138;16.952;2023-04-25T02:12:21;4.85;;;3.10;;
40459;SDS011;26164;51.138;16.952;2023-04-25T02:15:18;5.90;;;3.45;;
40459;SDS011;26164;51.138;16.952;2023-04-25T02:17:51;7.83;;;3.40;;
40459;SDS011;26164;51.138;16.952;2023-04-25T02:20:23;6.60;;;3.75;;
40459;SDS011;26164;51.138;16.952;2023-04-25T02:22:50;6.93;;;3.92;;
40459;SDS011;26164;51.138;16.952;2023-04-25T02:25:17;5.43;;;3.20;;
40459;SDS011;26164;51.138;16.952;2023-04-25T02:27:48;6.18;;;3.72;;
40459;SDS011;26164;51.138;16.952;2023-04-25T02:30:16;6.32;;;3.83;;
40459;SDS011;26164;51.138;16.952;2023-04-25T02:32:43;8.15;;;3.70;;
40459;SDS011;26164;51.138;16.952;2023-04-25T02:35:09;8.38;;;3.97;;
40459;SDS011;26164;51.138;16.952;2023-04-25T02:37:36;7.10;;;4.18;;
40459;SDS011;26164;51.138;16.952;2023-04-25T02:40:03;6.32;;;3.70;;
40459;SDS011;26164;51.138;16.952;2023-04-25T02:42:31;8.45;;;4.00;;
40459;SDS011;26164;51.138;16.952;2023-04-25T02:44:57;6.22;;;3.75;;
40459;SDS011;26164;51.138;16.952;2023-04-25T02:47:23;7.45;;;4.07;;
40459;SDS011;26164;51.138;16.952;2023-04-25T02:49:49;8.48;;;3.90;;
40459;SDS011;26164;51.138;16.952;2023-04-25T02:52:15;7.70;;;3.92;;
40459;SDS011;26164;51.138;16.952;2023-04-25T02:54:42;9.05;;;4.10;;
40459;SDS011;26164;51.138;16.952;2023-04-25T02:57:08;7.60;;;3.80;;
40459;SDS011;26164;51.138;16.952;2023-04-25T02:59:36;11.45;;;4.47;;
40459;SDS011;26164;51.138;16.952;2023-04-25T03:02:02;8.18;;;4.22;;
40459;SDS011;26164;51.138;16.952;2023-04-25T03:04:28;7.88;;;3.88;;
40459;SDS011;26164;51.138;16.952;2023-04-25T03:06:58;8.23;;;4.00;;
40459;SDS011;26164;51.138;16.952;2023-04-25T03:09:25;7.32;;;4.80;;
40459;SDS011;26164;51.138;16.952;2023-04-25T03:11:57;8.65;;;4.82;;
40459;SDS011;26164;51.138;16.952;2023-04-25T03:14:28;9.95;;;5.28;;
40459;SDS011;26164;51.138;16.952;2023-04-25T03:16:53;9.25;;;5.15;;
40459;SDS011;26164;51.138;16.952;2023-04-25T03:19:20;9.77;;;5.20;;
40459;SDS011;26164;51.138;16.952;2023-04-25T03:21:53;10.70;;;5.45;;
40459;SDS011;26164;51.138;16.952;2023-04-25T03:24:27;8.85;;;5.43;;
40459;SDS011;26164;51.138;16.952;2023-04-25T03:26:56;15.40;;;5.60;;
40459;SDS011;26164;51.138;16.952;2023-04-25T03:29:22;9.85;;;5.78;;
40459;SDS011;26164;51.138;16.952;2023-04-25T03:31:51;11.30;;;5.45;;
40459;SDS011;26164;51.138;16.952;2023-04-25T03:34:18;11.23;;;5.55;;
40459;SDS011;26164;51.138;16.952;2023-04-25T03:36:45;12.10;;;5.70;;
40459;SDS011;26164;51.138;16.952;2023-04-25T03:39:28;12.23;;;6.43;;
40459;SDS011;26164;51.138;16.952;2023-04-25T03:42:11;15.23;;;5.90;;
40459;SDS011;26164;51.138;16.952;2023-04-25T03:44:41;11.57;;;5.95;;
40459;SDS011;26164;51.138;16.952;2023-04-25T03:47:10;13.43;;;5.97;;
40459;SDS011;26164;51.138;16.952;2023-04-25T03:49:38;10.27;;;5.75;;
40459;SDS011;26164;51.138;16.952;2023-04-25T03:52:05;9.63;;;6.00;;
40459;SDS011;26164;51.138;16.952;2023-04-25T03:54:41;12.18;;;5.70;;
40459;SDS011;26164;51.138;16.952;2023-04-25T03:57:11;13.82;;;5.97;;
40459;SDS011;26164;51.138;16.952;2023-04-25T03:59:39;11.23;;;5.85;;
40459;SDS011;26164;51.138;16.952;2023-04-25T04:02:10;15.27;;;6.25;;
40459;SDS011;26164;51.138;16.952;2023-04-25T04:04:37;13.23;;;6.30;;
40459;SDS011;26164;51.138;16.952;2023-04-25T04:07:03;10.88;;;5.95;;
40459;SDS011;26164;51.138;16.952;2023-04-25T04:09:35;12.85;;;6.43;;
40459;SDS011;26164;51.138;16.952;2023-04-25T04:12:06;16.50;;;6.95;;
40459;SDS011;26164;51.138;16.952;2023-04-25T04:14:34;14.48;;;6.97;;
40459;SDS011;26164;51.138;16.952;2023-04-25T04:17:00;13.30;;;6.93;;
40459;SDS011;26164;51.138;16.952;2023-04-25T04:19:27;14.23;;;7.47;;
40459;SDS011;26164;51.138;16.952;2023-04-25T04:22:04;14.13;;;7.38;;
40459;SDS011;26164;51.138;16.952;2023-04-25T04:24:31;13.77;;;7.47;;
40459;SDS011;26164;51.138;16.952;2023-04-25T04:41:27;14.23;;;6.70;;
40459;SDS011;26164;51.138;16.952;2023-04-25T04:44:12;10.98;;;6.32;;
40459;SDS011;26164;51.138;16.952;2023-04-25T04:46:59;11.23;;;7.28;;
40459;SDS011;26164;51.138;16.952;2023-04-25T04:49:46;11.95;;;6.93;;
40459;SDS011;26164;51.138;16.952;2023-04-25T04:55:26;11.73;;;6.40;;
40459;SDS011;26164;51.138;16.952;2023-04-25T04:58:07;22.58;;;6.72;;
40459;SDS011;26164;51.138;16.952;2023-04-25T05:00:55;15.18;;;6.38;;
40459;SDS011;26164;51.138;16.952;2023-04-25T05:07:00;13.00;;;6.30;;
40459;SDS011;26164;51.138;16.952;2023-04-25T05:10:02;11.25;;;5.75;;
40459;SDS011;26164;51.138;16.952;2023-04-25T05:21:53;12.68;;;5.55;;
40459;SDS011;26164;51.138;16.952;2023-04-25T05:24:45;11.15;;;5.43;;
40459;SDS011;26164;51.138;16.952;2023-04-25T05:27:25;13.85;;;6.00;;
40459;SDS011;26164;51.138;16.952;2023-04-25T05:30:06;10.98;;;5.43;;
40459;SDS011;26164;51.138;16.952;2023-04-25T05:32:42;12.30;;;5.53;;
40459;SDS011;26164;51.138;16.952;2023-04-25T05:35:07;8.35;;;5.00;;
40459;SDS011;26164;51.138;16.952;2023-04-25T05:37:41;11.32;;;5.35;;
40459;SDS011;26164;51.138;16.952;2023-04-25T05:40:12;13.98;;;5.55;;
40459;SDS011;26164;51.138;16.952;2023-04-25T05:43:00;14.38;;;5.28;;
40459;SDS011;26164;51.138;16.952;2023-04-25T05:45:55;10.77;;;5.18;;
40459;SDS011;26164;51.138;16.952;2023-04-25T05:48:30;9.35;;;5.10;;
40459;SDS011;26164;51.138;16.952;2023-04-25T05:51:05;9.85;;;5.10;;
40459;SDS011;26164;51.138;16.952;2023-04-25T05:53:51;14.38;;;5.68;;
40459;SDS011;26164;51.138;16.952;2023-04-25T05:56:17;14.43;;;5.05;;
40459;SDS011;26164;51.138;16.952;2023-04-25T05:58:45;10.77;;;5.38;;
40459;SDS011;26164;51.138;16.952;2023-04-25T06:01:11;17.05;;;5.70;;
40459;SDS011;26164;51.138;16.952;2023-04-25T06:03:37;12.02;;;5.25;;
40459;SDS011;26164;51.138;16.952;2023-04-25T06:06:04;9.38;;;5.32;;
40459;SDS011;26164;51.138;16.952;2023-04-25T06:08:30;10.52;;;5.20;;
40459;SDS011;26164;51.138;16.952;2023-04-25T06:10:56;7.07;;;4.80;;
40459;SDS011;26164;51.138;16.952;2023-04-25T06:13:25;9.25;;;5.10;;
40459;SDS011;26164;51.138;16.952;2023-04-25T06:15:50;12.23;;;5.28;;
40459;SDS011;26164;51.138;16.952;2023-04-25T06:18:16;8.73;;;4.80;;
40459;SDS011;26164;51.138;16.952;2023-04-25T06:20:48;7.65;;;4.38;;
40459;SDS011;26164;51.138;16.952;2023-04-25T06:23:17;9.15;;;4.20;;
40459;SDS011;26164;51.138;16.952;2023-04-25T06:25:50;8.38;;;4.40;;
40459;SDS011;26164;51.138;16.952;2023-04-25T06:28:16;11.82;;;4.35;;
40459;SDS011;26164;51.138;16.952;2023-04-25T06:30:43;8.57;;;4.25;;
40459;SDS011;26164;51.138;16.952;2023-04-25T06:33:13;11.43;;;4.25;;
40459;SDS011;26164;51.138;16.952;2023-04-25T06:35:39;9.10;;;3.63;;
40459;SDS011;26164;51.138;16.952;2023-04-25T06:38:07;7.53;;;4.03;;
40459;SDS011;26164;51.138;16.952;2023-04-25T06:40:35;6.55;;;3.63;;
40459;SDS011;26164;51.138;16.952;2023-04-25T06:43:01;9.48;;;3.35;;
40459;SDS011;26164;51.138;16.952;2023-04-25T06:45:56;8.93;;;3.67;;
40459;SDS011;26164;51.138;16.952;2023-04-25T06:48:27;9.27;;;3.67;;
40459;SDS011;26164;51.138;16.952;2023-04-25T06:50:53;6.55;;;3.63;;
40459;SDS011;26164;51.138;16.952;2023-04-25T06:53:20;10.65;;;3.45;;
40459;SDS011;26164;51.138;16.952;2023-04-25T06:55:50;10.75;;;3.85;;
40459;SDS011;26164;51.138;16.952;2023-04-25T06:58:19;8.85;;;3.60;;
40459;SDS011;26164;51.138;16.952;2023-04-25T07:01:01;7.40;;;2.85;;
40459;SDS011;26164;51.138;16.952;2023-04-25T07:03:27;8.88;;;2.65;;
40459;SDS011;26164;51.138;16.952;2023-04-25T07:06:00;6.43;;;2.42;;
40459;SDS011;26164;51.138;16.952;2023-04-25T07:08:32;6.13;;;2.78;;
40459;SDS011;26164;51.138;16.952;2023-04-25T07:10:58;9.05;;;2.55;;
40459;SDS011;26164;51.138;16.952;2023-04-25T07:13:25;6.55;;;2.70;;
40459;SDS011;26164;51.138;16.952;2023-04-25T07:15:50;8.50;;;1.95;;
40459;SDS011;26164;51.138;16.952;2023-04-25T07:18:19;7.00;;;2.00;;
40459;SDS011;26164;51.138;16.952;2023-04-25T07:20:45;7.82;;;2.13;;
40459;SDS011;26164;51.138;16.952;2023-04-25T07:23:12;7.53;;;2.10;;
40459;SDS011;26164;51.138;16.952;2023-04-25T07:25:38;6.38;;;1.95;;
40459;SDS011;26164;51.138;16.952;2023-04-25T07:28:08;6.53;;;2.22;;
40459;SDS011;26164;51.138;16.952;2023-04-25T07:30:54;6.95;;;2.70;;
40459;SDS011;26164;51.138;16.952;2023-04-25T07:33:20;7.75;;;2.55;;
40459;SDS011;26164;51.138;16.952;2023-04-25T07:36:09;8.98;;;2.42;;
40459;SDS011;26164;51.138;16.952;2023-04-25T07:38:36;6.93;;;2.70;;
40459;SDS011;26164;51.138;16.952;2023-04-25T07:41:01;9.52;;;4.10;;
40459;SDS011;26164;51.138;16.952;2023-04-25T07:43:32;9.32;;;3.80;;
40459;SDS011;26164;51.138;16.952;2023-04-25T07:45:58;6.95;;;3.45;;
40459;SDS011;26164;51.138;16.952;2023-04-25T07:48:27;7.45;;;3.67;;
40459;SDS011;26164;51.138;16.952;2023-04-25T07:51:16;6.95;;;3.40;;
40459;SDS011;26164;51.138;16.952;2023-04-25T07:53:45;8.80;;;4.45;;
40459;SDS011;26164;51.138;16.952;2023-04-25T07:56:27;9.52;;;3.97;;
40459;SDS011;26164;51.138;16.952;2023-04-25T07:58:56;7.72;;;4.22;;
40459;SDS011;26164;51.138;16.952;2023-04-25T08:04:24;8.40;;;4.10;;
40459;SDS011;26164;51.138;16.952;2023-04-25T08:07:04;8.45;;;4.20;;
40459;SDS011;26164;51.138;16.952;2023-04-25T08:10:13;11.57;;;4.60;;
40459;SDS011;26164;51.138;16.952;2023-04-25T08:12:41;8.32;;;3.95;;
40459;SDS011;26164;51.138;16.952;2023-04-25T08:15:12;8.32;;;4.40;;
40459;SDS011;26164;51.138;16.952;2023-04-25T08:17:39;10.73;;;4.30;;
40459;SDS011;26164;51.138;16.952;2023-04-25T08:20:17;9.40;;;4.80;;
40459;SDS011;26164;51.138;16.952;2023-04-25T08:22:48;8.10;;;4.05;;
40459;SDS011;26164;51.138;16.952;2023-04-25T08:25:37;9.32;;;4.60;;
40459;SDS011;26164;51.138;16.952;2023-04-25T08:28:03;10.50;;;4.80;;
40459;SDS011;26164;51.138;16.952;2023-04-25T08:30:29;12.65;;;4.90;;
40459;SDS011;26164;51.138;16.952;2023-04-25T08:32:55;8.02;;;4.15;;
40459;SDS011;26164;51.138;16.952;2023-04-25T08:35:40;11.13;;;4.82;;
40459;SDS011;26164;51.138;16.952;2023-04-25T08:38:07;5.82;;;3.50;;
40459;SDS011;26164;51.138;16.952;2023-04-25T08:40:35;9.18;;;4.45;;
40459;SDS011;26164;51.138;16.952;2023-04-25T08:43:14;9.05;;;3.90;;
40459;SDS011;26164;51.138;16.952;2023-04-25T08:45:42;9.80;;;4.50;;
40459;SDS011;26164;51.138;16.952;2023-04-25T08:48:11;10.85;;;5.45;;
40459;SDS011;26164;51.138;16.952;2023-04-25T08:50:55;15.52;;;6.15;;
40459;SDS011;26164;51.138;16.952;2023-04-25T08:53:25;8.73;;;5.75;;
40459;SDS011;26164;51.138;16.952;2023-04-25T08:55:51;14.50;;;5.70;;
40459;SDS011;26164;51.138;16.952;2023-04-25T08:58:18;9.98;;;5.07;;
40459;SDS011;26164;51.138;16.952;2023-04-25T09:00:45;8.38;;;4.90;;
40459;SDS011;26164;51.138;16.952;2023-04-25T09:03:11;11.40;;;4.50;;
40459;SDS011;26164;51.138;16.952;2023-04-25T09:05:37;8.70;;;4.57;;
40459;SDS011;26164;51.138;16.952;2023-04-25T09:08:06;9.27;;;4.82;;
40459;SDS011;26164;51.138;16.952;2023-04-25T09:10:33;9.18;;;4.82;;
40459;SDS011;26164;51.138;16.952;2023-04-25T09:13:02;10.95;;;4.35;;
40459;SDS011;26164;51.138;16.952;2023-04-25T09:15:32;8.15;;;3.97;;
40459;SDS011;26164;51.138;16.952;2023-04-25T09:18:29;7.50;;;4.32;;
40459;SDS011;26164;51.138;16.952;2023-04-25T09:20:58;9.18;;;4.55;;
40459;SDS011;26164;51.138;16.952;2023-04-25T09:26:16;7.22;;;4.07;;
40459;SDS011;26164;51.138;16.952;2023-04-25T09:28:44;5.13;;;3.25;;
40459;SDS011;26164;51.138;16.952;2023-04-25T09:31:11;6.80;;;4.05;;
40459;SDS011;26164;51.138;16.952;2023-04-25T09:33:42;7.63;;;3.67;;
40459;SDS011;26164;51.138;16.952;2023-04-25T09:36:11;10.18;;;4.50;;
40459;SDS011;26164;51.138;16.952;2023-04-25T09:38:57;10.80;;;5.57;;
40459;SDS011;26164;51.138;16.952;2023-04-25T09:41:31;7.18;;;4.70;;
40459;SDS011;26164;51.138;16.952;2023-04-25T09:44:01;9.45;;;5.07;;
40459;SDS011;26164;51.138;16.952;2023-04-25T09:46:35;10.00;;;4.70;;
40459;SDS011;26164;51.138;16.952;2023-04-25T09:49:17;9.18;;;4.78;;
40459;SDS011;26164;51.138;16.952;2023-04-25T09:51:55;9.65;;;3.90;;
40459;SDS011;26164;51.138;16.952;2023-04-25T09:54:26;8.38;;;4.50;;
40459;SDS011;26164;51.138;16.952;2023-04-25T09:57:03;11.05;;;4.45;;
40459;SDS011;26164;51.138;16.952;2023-04-25T09:59:34;10.93;;;4.82;;
40459;SDS011;26164;51.138;16.952;2023-04-25T10:02:02;7.13;;;4.35;;
40459;SDS011;26164;51.138;16.952;2023-04-25T10:04:35;6.63;;;3.72;;
40459;SDS011;26164;51.138;16.952;2023-04-25T10:07:20;8.55;;;3.53;;
40459;SDS011;26164;51.138;16.952;2023-04-25T10:09:49;5.68;;;3.60;;
40459;SDS011;26164;51.138;16.952;2023-04-25T10:12:18;7.82;;;3.70;;
40459;SDS011;26164;51.138;16.952;2023-04-25T10:14:45;7.22;;;3.60;;
40459;SDS011;26164;51.138;16.952;2023-04-25T10:17:11;6.25;;;3.50;;
40459;SDS011;26164;51.138;16.952;2023-04-25T10:19:38;6.13;;;3.22;;
40459;SDS011;26164;51.138;16.952;2023-04-25T10:22:07;7.43;;;3.03;;
40459;SDS011;26164;51.138;16.952;2023-04-25T10:24:34;8.32;;;2.83;;
40459;SDS011;26164;51.138;16.952;2023-04-25T10:27:00;5.90;;;2.95;;
40459;SDS011;26164;51.138;16.952;2023-04-25T10:29:27;6.93;;;2.33;;
40459;SDS011;26164;51.138;16.952;2023-04-25T10:31:53;4.45;;;2.63;;
40459;SDS011;26164;51.138;16.952;2023-04-25T10:34:19;5.38;;;2.50;;
40459;SDS011;26164;51.138;16.952;2023-04-25T10:36:49;4.90;;;2.08;;
40459;SDS011;26164;51.138;16.952;2023-04-25T10:39:21;6.38;;;2.20;;
40459;SDS011;26164;51.138;16.952;2023-04-25T10:41:56;3.63;;;1.88;;
40459;SDS011;26164;51.138;16.952;2023-04-25T10:44:26;5.50;;;2.15;;
40459;SDS011;26164;51.138;16.952;2023-04-25T10:46:54;6.05;;;2.03;;
40459;SDS011;26164;51.138;16.952;2023-04-25T10:52:12;4.63;;;2.42;;
40459;SDS011;26164;51.138;16.952;2023-04-25T10:54:52;7.25;;;2.58;;
40459;SDS011;26164;51.138;16.952;2023-04-25T11:00:07;5.30;;;1.80;;
40459;SDS011;26164;51.138;16.952;2023-04-25T11:02:41;4.35;;;2.15;;
40459;SDS011;26164;51.138;16.952;2023-04-25T11:05:08;2.63;;;1.92;;
40459;SDS011;26164;51.138;16.952;2023-04-25T11:07:38;4.57;;;1.50;;
40459;SDS011;26164;51.138;16.952;2023-04-25T11:10:08;4.93;;;1.58;;
40459;SDS011;26164;51.138;16.952;2023-04-25T11:12:36;4.97;;;1.58;;
40459;SDS011;26164;51.138;16.952;2023-04-25T11:15:03;3.17;;;1.40;;
40459;SDS011;26164;51.138;16.952;2023-04-25T11:17:28;3.60;;;1.50;;
40459;SDS011;26164;51.138;16.952;2023-04-25T11:19:56;5.00;;;1.30;;
40459;SDS011;26164;51.138;16.952;2023-04-25T11:22:22;3.75;;;1.00;;
40459;SDS011;26164;51.138;16.952;2023-04-25T11:24:48;5.78;;;1.00;;
40459;SDS011;26164;51.138;16.952;2023-04-25T11:27:14;2.03;;;1.05;;
40459;SDS011;26164;51.138;16.952;2023-04-25T11:29:40;3.30;;;1.05;;
40459;SDS011;26164;51.138;16.952;2023-04-25T11:32:06;3.53;;;1.02;;
40459;SDS011;26164;51.138;16.952;2023-04-25T11:34:32;3.45;;;1.25;;
40459;SDS011;26164;51.138;16.952;2023-04-25T11:36:59;4.97;;;1.10;;
40459;SDS011;26164;51.138;16.952;2023-04-25T11:39:25;4.40;;;0.88;;
40459;SDS011;26164;51.138;16.952;2023-04-25T11:41:51;3.55;;;1.02;;
40459;SDS011;26164;51.138;16.952;2023-04-25T11:44:17;2.92;;;1.15;;
40459;SDS011;26164;51.138;16.952;2023-04-25T11:46:43;2.38;;;1.00;;
40459;SDS011;26164;51.138;16.952;2023-04-25T11:49:10;2.05;;;1.00;;
40459;SDS011;26164;51.138;16.952;2023-04-25T11:54:06;2.25;;;0.80;;
40459;SDS011;26164;51.138;16.952;2023-04-25T11:56:31;4.47;;;0.98;;
40459;SDS011;26164;51.138;16.952;2023-04-25T11:58:58;2.53;;;1.00;;
40459;SDS011;26164;51.138;16.952;2023-04-25T12:01:32;3.75;;;1.27;;
40459;SDS011;26164;51.138;16.952;2023-04-25T12:03:58;7.25;;;1.00;;
40459;SDS011;26164;51.138;16.952;2023-04-25T12:06:38;2.95;;;1.00;;
40459;SDS011;26164;51.138;16.952;2023-04-25T12:09:08;2.15;;;0.80;;
40459;SDS011;26164;51.138;16.952;2023-04-25T12:11:41;3.13;;;0.80;;
40459;SDS011;26164;51.138;16.952;2023-04-25T12:14:07;3.20;;;0.90;;
40459;SDS011;26164;51.138;16.952;2023-04-25T12:16:43;3.20;;;1.10;;
40459;SDS011;26164;51.138;16.952;2023-04-25T12:19:09;2.30;;;1.00;;
40459;SDS011;26164;51.138;16.952;2023-04-25T12:21:35;3.30;;;1.40;;
40459;SDS011;26164;51.138;16.952;2023-04-25T12:24:15;4.47;;;0.75;;
40459;SDS011;26164;51.138;16.952;2023-04-25T12:26:55;3.45;;;1.05;;
40459;SDS011;26164;51.138;16.952;2023-04-25T12:29:25;5.67;;;0.90;;
40459;SDS011;26164;51.138;16.952;2023-04-25T12:31:51;6.03;;;1.00;;
40459;SDS011;26164;51.138;16.952;2023-04-25T12:34:18;2.60;;;0.80;;
40459;SDS011;26164;51.138;16.952;2023-04-25T12:36:43;4.57;;;0.98;;
40459;SDS011;26164;51.138;16.952;2023-04-25T12:39:14;2.17;;;0.90;;
40459;SDS011;26164;51.138;16.952;2023-04-25T12:41:40;2.75;;;0.70;;
40459;SDS011;26164;51.138;16.952;2023-04-25T12:44:06;4.43;;;1.23;;
40459;SDS011;26164;51.138;16.952;2023-04-25T12:46:32;3.80;;;1.13;;
40459;SDS011;26164;51.138;16.952;2023-04-25T12:48:58;2.22;;;0.70;;
40459;SDS011;26164;51.138;16.952;2023-04-25T12:51:23;3.88;;;0.85;;
40459;SDS011;26164;51.138;16.952;2023-04-25T12:53:51;2.00;;;0.80;;
40459;SDS011;26164;51.138;16.952;2023-04-25T12:56:17;3.45;;;0.98;;
40459;SDS011;26164;51.138;16.952;2023-04-25T12:58:43;4.70;;;0.80;;
40459;SDS011;26164;51.138;16.952;2023-04-25T13:01:09;3.25;;;0.90;;
40459;SDS011;26164;51.138;16.952;2023-04-25T13:03:35;1.77;;;0.77;;
40459;SDS011;26164;51.138;16.952;2023-04-25T13:06:01;3.65;;;0.90;;
40459;SDS011;26164;51.138;16.952;2023-04-25T13:08:27;4.32;;;1.10;;
40459;SDS011;26164;51.138;16.952;2023-04-25T13:10:52;1.70;;;0.90;;
40459;SDS011;26164;51.138;16.952;2023-04-25T13:13:18;5.75;;;0.90;;
40459;SDS011;26164;51.138;16.952;2023-04-25T13:15:44;2.95;;;0.88;;
40459;SDS011;26164;51.138;16.952;2023-04-25T13:18:10;3.20;;;0.77;;
40459;SDS011;26164;51.138;16.952;2023-04-25T13:20:36;2.83;;;0.80;;
40459;SDS011;26164;51.138;16.952;2023-04-25T13:23:02;2.65;;;0.85;;
40459;SDS011;26164;51.138;16.952;2023-04-25T13:25:27;2.25;;;0.80;;
40459;SDS011;26164;51.138;16.952;2023-04-25T13:27:53;4.63;;;1.20;;
40459;SDS011;26164;51.138;16.952;2023-04-25T13:30:19;3.67;;;1.00;;
40459;SDS011;26164;51.138;16.952;2023-04-25T13:32:45;6.40;;;1.10;;
40459;SDS011;26164;51.138;16.952;2023-04-25T13:35:11;3.47;;;0.98;;
40459;SDS011;26164;51.138;16.952;2023-04-25T13:37:38;3.38;;;0.80;;
40459;SDS011;26164;51.138;16.952;2023-04-25T13:40:05;3.72;;;1.10;;
40459;SDS011;26164;51.138;16.952;2023-04-25T13:42:32;2.80;;;0.70;;
40459;SDS011;26164;51.138;16.952;2023-04-25T13:44:57;3.40;;;0.93;;
40459;SDS011;26164;51.138;16.952;2023-04-25T13:47:24;4.43;;;1.00;;
40459;SDS011;26164;51.138;16.952;2023-04-25T13:49:50;2.47;;;0.93;;
40459;SDS011;26164;51.138;16.952;2023-04-25T13:52:16;3.67;;;0.98;;
40459;SDS011;26164;51.138;16.952;2023-04-25T13:54:42;3.20;;;0.95;;
40459;SDS011;26164;51.138;16.952;2023-04-25T13:57:08;4.97;;;0.93;;
40459;SDS011;26164;51.138;16.952;2023-04-25T13:59:34;3.30;;;0.80;;
40459;SDS011;26164;51.138;16.952;2023-04-25T14:02:00;2.25;;;0.80;;
40459;SDS011;26164;51.138;16.952;2023-04-25T14:04:25;3.05;;;1.08;;
40459;SDS011;26164;51.138;16.952;2023-04-25T14:06:51;3.20;;;1.15;;
40459;SDS011;26164;51.138;16.952;2023-04-25T14:09:18;4.70;;;1.13;;
40459;SDS011;26164;51.138;16.952;2023-04-25T14:11:44;4.65;;;0.75;;
40459;SDS011;26164;51.138;16.952;2023-04-25T14:14:10;2.90;;;1.17;;
40459;SDS011;26164;51.138;16.952;2023-04-25T14:16:36;2.72;;;0.90;;
40459;SDS011;26164;51.138;16.952;2023-04-25T14:19:03;2.85;;;1.20;;
40459;SDS011;26164;51.138;16.952;2023-04-25T14:21:29;2.75;;;0.80;;
40459;SDS011;26164;51.138;16.952;2023-04-25T14:23:57;3.92;;;1.05;;
40459;SDS011;26164;51.138;16.952;2023-04-25T14:26:31;4.03;;;0.98;;
40459;SDS011;26164;51.138;16.952;2023-04-25T14:28:58;3.53;;;0.95;;
40459;SDS011;26164;51.138;16.952;2023-04-25T14:31:28;3.20;;;1.02;;
40459;SDS011;26164;51.138;16.952;2023-04-25T14:33:55;3.75;;;1.45;;
40459;SDS011;26164;51.138;16.952;2023-04-25T14:36:25;4.05;;;1.10;;
40459;SDS011;26164;51.138;16.952;2023-04-25T14:38:55;4.18;;;1.15;;
40459;SDS011;26164;51.138;16.952;2023-04-25T14:41:22;3.28;;;1.70;;
40459;SDS011;26164;51.138;16.952;2023-04-25T14:43:48;3.45;;;1.10;;
40459;SDS011;26164;51.138;16.952;2023-04-25T14:46:18;2.15;;;0.85;;
40459;SDS011;26164;51.138;16.952;2023-04-25T14:48:44;4.05;;;1.38;;
40459;SDS011;26164;51.138;16.952;2023-04-25T14:51:11;4.72;;;1.80;;
40459;SDS011;26164;51.138;16.952;2023-04-25T14:53:36;6.07;;;1.73;;
40459;SDS011;26164;51.138;16.952;2023-04-25T14:56:02;3.33;;;1.48;;
40459;SDS011;26164;51.138;16.952;2023-04-25T14:58:28;7.78;;;1.85;;
40459;SDS011;26164;51.138;16.952;2023-04-25T15:00:54;4.90;;;1.50;;
40459;SDS011;26164;51.138;16.952;2023-04-25T15:03:20;5.55;;;1.45;;
40459;SDS011;26164;51.138;16.952;2023-04-25T15:05:46;5.75;;;1.15;;
40459;SDS011;26164;51.138;16.952;2023-04-25T15:08:11;4.30;;;1.45;;
40459;SDS011;26164;51.138;16.952;2023-04-25T15:10:37;5.00;;;1.48;;
40459;SDS011;26164;51.138;16.952;2023-04-25T15:13:03;4.22;;;1.58;;
40459;SDS011;26164;51.138;16.952;2023-04-25T15:15:29;3.10;;;1.25;;
40459;SDS011;26164;51.138;16.952;2023-04-25T15:17:55;4.00;;;1.50;;
40459;SDS011;26164;51.138;16.952;2023-04-25T15:20:21;5.03;;;1.80;;
40459;SDS011;26164;51.138;16.952;2023-04-25T15:22:47;3.65;;;1.50;;
40459;SDS011;26164;51.138;16.952;2023-04-25T15:25:14;3.50;;;1.60;;
40459;SDS011;26164;51.138;16.952;2023-04-25T15:27:42;5.22;;;1.92;;
40459;SDS011;26164;51.138;16.952;2023-04-25T15:30:10;4.63;;;1.75;;
40459;SDS011;26164;51.138;16.952;2023-04-25T15:32:42;4.70;;;1.85;;
40459;SDS011;26164;51.138;16.952;2023-04-25T15:35:08;3.75;;;1.88;;
40459;SDS011;26164;51.138;16.952;2023-04-25T15:37:34;5.72;;;1.92;;
40459;SDS011;26164;51.138;16.952;2023-04-25T15:40:10;2.90;;;1.67;;
40459;SDS011;26164;51.138;16.952;2023-04-25T15:42:38;7.35;;;2.40;;